Terminal Aerodrome Forecast
Issued by NWS Knoxville/Tri Cities, TN

Home | Current Version | Previous Version | Text Only | Print | Product List | Glossary On
Versions: 1 2 3 4 5 6 7 8 9 10 11 12 13 14 15
000
FTUS44 KMRX 180520
TAFTYS
TAF
KTYS 180520Z 1806/1906 00000KT 1SM BR OVC006
     FM180800 00000KT 1/2SM FG OVC003
     FM181800 22003KT 5SM BR OVC008
     FM182100 22005KT P6SM BKN015
     FM190200 23003KT P6SM OVC010=

USA.gov is the U.S. government's official web portal to all federal, state and local government web resources and services.